Time;durP1;ratioP1;P1;durP2;ratioP2;P2;SDS_P1;SDS_P2;PMS_P1;PMS_P2;Temp;Humidity;BMP_temperature;BMP_pressure;BME280_temperature;BME280_humidity;BME280_pressure;Samples;Min_cycle;Max_cycle;Signal;HPM_P1;HPM_P2
2022/09/28 00:00:01;;;;;;;1.63;0.80;;;;;;;;;;521398;28;1417;-63
2022/09/28 00:00:17;;;;;;;1.90;0.80;;;;;;;;;;519192;28;4072;-62
2022/09/28 00:00:32;;;;;;;2.85;0.88;;;;;;;;;;523007;28;1046;-62
2022/09/28 00:00:47;;;;;;;2.77;0.90;;;;;;;;;;521976;28;1140;-62
2022/09/28 00:01:12;;;;;;;2.83;0.90;;;;;;;;;;521565;28;1271;-62
2022/09/28 00:01:28;;;;;;;2.13;0.90;;;;;;;;;;520794;28;1440;-62
2022/09/28 00:01:43;;;;;;;1.67;0.80;;;;;;;;;;520700;28;1122;-62
2022/09/28 00:01:59;;;;;;;2.03;0.80;;;;;;;;;;521744;28;1231;-62
2022/09/28 00:02:14;;;;;;;1.97;0.77;;;;;;;;;;523020;28;971;-62
2022/09/28 00:02:30;;;;;;;2.53;0.80;;;;;;;;;;520776;28;1224;-62
2022/09/28 00:02:45;;;;;;;2.95;0.95;;;;;;;;;;523336;28;1141;-62
2022/09/28 00:03:01;;;;;;;2.88;0.95;;;;;;;;;;522947;28;983;-62
2022/09/28 00:03:16;;;;;;;3.00;0.90;;;;;;;;;;522823;28;1188;-62
2022/09/28 00:03:31;;;;;;;2.93;0.97;;;;;;;;;;520666;28;1432;-62
2022/09/28 00:03:48;;;;;;;2.28;0.80;;;;;;;;;;521993;28;1272;-63
2022/09/28 00:04:05;;;;;;;2.00;0.95;;;;;;;;;;522097;28;1253;-62
2022/09/28 00:04:21;;;;;;;2.70;1.10;;;;;;;;;;521458;28;1115;-62
2022/09/28 00:04:36;;;;;;;2.87;1.00;;;;;;;;;;518632;28;1166;-62
2022/09/28 00:04:51;;;;;;;2.90;0.90;;;;;;;;;;520958;28;1177;-62
2022/09/28 00:05:07;;;;;;;3.77;1.00;;;;;;;;;;519845;28;1134;-62
2022/09/28 00:05:25;;;;;;;3.90;1.10;;;;;;;;;;520801;28;1204;-62
2022/09/28 00:05:41;;;;;;;2.17;1.02;;;;;;;;;;519857;28;1930;-62
2022/09/28 00:06:07;;;;;;;2.27;1.10;;;;;;;;;;520986;28;1446;-62
2022/09/28 00:06:24;;;;;;;2.47;1.02;;;;;;;;;;523193;28;1141;-63
2022/09/28 00:06:40;;;;;;;2.17;1.08;;;;;;;;;;521655;28;1326;-62
2022/09/28 00:06:55;;;;;;;2.15;0.98;;;;;;;;;;521033;28;1097;-62
2022/09/28 00:07:11;;;;;;;2.17;0.90;;;;;;;;;;523996;28;1102;-62
2022/09/28 00:07:27;;;;;;;2.30;0.97;;;;;;;;;;522059;28;1250;-62
2022/09/28 00:07:43;;;;;;;3.53;1.02;;;;;;;;;;522821;28;1201;-62
2022/09/28 00:07:59;;;;;;;4.18;1.20;;;;;;;;;;523479;28;1176;-63
2022/09/28 00:08:14;;;;;;;4.13;1.30;;;;;;;;;;523039;28;1180;-62
2022/09/28 00:08:29;;;;;;;3.30;1.20;;;;;;;;;;521379;28;1290;-62
2022/09/28 00:08:46;;;;;;;2.92;1.20;;;;;;;;;;518113;28;1438;-62
2022/09/28 00:09:01;;;;;;;3.05;1.10;;;;;;;;;;520090;28;1035;-62
2022/09/28 00:09:16;;;;;;;2.53;1.20;;;;;;;;;;518170;28;1424;-62
2022/09/28 00:09:32;;;;;;;2.73;1.20;;;;;;;;;;519993;28;975;-62
2022/09/28 00:09:47;;;;;;;3.15;1.10;;;;;;;;;;519728;28;1113;-62
2022/09/28 00:10:03;;;;;;;2.90;1.00;;;;;;;;;;520283;28;1220;-62
2022/09/28 00:10:21;;;;;;;3.08;1.00;;;;;;;;;;520257;28;1201;-63
2022/09/28 00:10:36;;;;;;;3.05;1.10;;;;;;;;;;522020;28;1014;-62
2022/09/28 00:10:56;;;;;;;2.77;1.00;;;;;;;;;;525214;28;1052;-62
2022/09/28 00:11:14;;;;;;;2.95;1.00;;;;;;;;;;524060;28;1130;-62
2022/09/28 00:11:29;;;;;;;3.55;1.20;;;;;;;;;;521871;28;1451;-62
2022/09/28 00:11:45;;;;;;;3.10;1.20;;;;;;;;;;521083;28;955;-62
2022/09/28 00:12:00;;;;;;;3.03;1.10;;;;;;;;;;520057;28;1188;-62
2022/09/28 00:12:17;;;;;;;3.43;1.10;;;;;;;;;;517388;28;1141;-62
2022/09/28 00:12:33;;;;;;;2.75;1.00;;;;;;;;;;517556;28;1505;-62
2022/09/28 00:12:49;;;;;;;2.38;1.00;;;;;;;;;;515057;28;1395;-63
2022/09/28 00:13:05;;;;;;;2.67;1.10;;;;;;;;;;515597;28;1196;-62
2022/09/28 00:13:20;;;;;;;3.88;1.25;;;;;;;;;;518257;28;1065;-62
2022/09/28 00:13:36;;;;;;;3.57;1.20;;;;;;;;;;519000;28;1250;-62
2022/09/28 00:13:55;;;;;;;2.38;1.10;;;;;;;;;;521569;28;1141;-62
2022/09/28 00:14:10;;;;;;;2.33;1.00;;;;;;;;;;522604;28;1049;-62
2022/09/28 00:14:26;;;;;;;3.13;1.00;;;;;;;;;;521670;28;1343;-62
2022/09/28 00:14:43;;;;;;;2.75;1.10;;;;;;;;;;521925;28;1078;-63
2022/09/28 00:14:58;;;;;;;2.78;1.10;;;;;;;;;;520804;28;1286;-62
2022/09/28 00:15:14;;;;;;;4.23;1.23;;;;;;;;;;521403;28;4127;-62
2022/09/28 00:15:29;;;;;;;4.17;1.10;;;;;;;;;;523939;28;1120;-62
2022/09/28 00:15:44;;;;;;;3.22;1.05;;;;;;;;;;520678;28;1505;-62
2022/09/28 00:16:02;;;;;;;2.57;1.00;;;;;;;;;;519118;28;1135;-62
2022/09/28 00:16:22;;;;;;;2.38;1.00;;;;;;;;;;522182;28;1015;-62
2022/09/28 00:16:41;;;;;;;2.28;1.00;;;;;;;;;;519393;28;1177;-62
2022/09/28 00:16:56;;;;;;;2.88;1.15;;;;;;;;;;523061;28;1149;-62
2022/09/28 00:17:11;;;;;;;3.27;1.20;;;;;;;;;;522661;28;1176;-62
2022/09/28 00:17:27;;;;;;;2.90;1.10;;;;;;;;;;520973;28;1165;-62
2022/09/28 00:17:45;;;;;;;2.10;1.00;;;;;;;;;;524862;28;1208;-62
2022/09/28 00:18:00;;;;;;;2.25;1.08;;;;;;;;;;524880;28;1534;-62
2022/09/28 00:18:16;;;;;;;1.80;1.00;;;;;;;;;;524799;28;1013;-62
2022/09/28 00:18:32;;;;;;;1.75;0.95;;;;;;;;;;521500;28;1056;-61
2022/09/28 00:18:49;;;;;;;1.95;1.00;;;;;;;;;;523464;28;1109;-63
2022/09/28 00:19:05;;;;;;;3.00;1.10;;;;;;;;;;524590;28;1136;-62
2022/09/28 00:19:20;;;;;;;3.30;1.20;;;;;;;;;;522593;28;1136;-63
2022/09/28 00:19:35;;;;;;;2.50;1.03;;;;;;;;;;523864;28;1207;-62
2022/09/28 00:19:51;;;;;;;2.50;1.10;;;;;;;;;;524124;27;1193;-62
2022/09/28 00:20:07;;;;;;;2.37;1.10;;;;;;;;;;526978;27;1097;-62
2022/09/28 00:20:22;;;;;;;2.17;1.00;;;;;;;;;;521696;28;1304;-62
2022/09/28 00:20:37;;;;;;;3.13;1.13;;;;;;;;;;522267;28;1170;-62
2022/09/28 00:21:08;;;;;;;3.50;1.20;;;;;;;;;;523813;28;1109;-62
2022/09/28 00:21:26;;;;;;;2.47;0.93;;;;;;;;;;524059;28;1068;-62
2022/09/28 00:21:41;;;;;;;2.88;0.93;;;;;;;;;;522410;28;1054;-62
2022/09/28 00:21:56;;;;;;;2.50;0.90;;;;;;;;;;522695;28;1153;-62
2022/09/28 00:22:12;;;;;;;2.93;0.90;;;;;;;;;;523511;28;1054;-62
2022/09/28 00:22:27;;;;;;;2.53;0.90;;;;;;;;;;526054;28;1076;-62
2022/09/28 00:22:42;;;;;;;2.17;1.00;;;;;;;;;;524151;27;1315;-62
2022/09/28 00:22:57;;;;;;;2.67;1.00;;;;;;;;;;524152;28;1344;-62
2022/09/28 00:23:13;;;;;;;2.70;0.90;;;;;;;;;;523188;28;1141;-62
2022/09/28 00:23:28;;;;;;;1.90;0.83;;;;;;;;;;523923;28;1152;-62
2022/09/28 00:24:19;;;;;;;2.97;0.95;;;;;;;;;;521499;28;1069;-62
2022/09/28 00:24:34;;;;;;;2.55;0.98;;;;;;;;;;519291;28;1303;-62
2022/09/28 00:24:49;;;;;;;2.57;0.80;;;;;;;;;;518354;28;1386;-62
2022/09/28 00:25:06;;;;;;;3.03;0.82;;;;;;;;;;518752;28;1131;-62
2022/09/28 00:25:21;;;;;;;2.50;0.90;;;;;;;;;;518352;28;1265;-62
2022/09/28 00:25:36;;;;;;;1.53;0.80;;;;;;;;;;518483;28;1969;-63
2022/09/28 00:25:51;;;;;;;1.60;0.77;;;;;;;;;;519919;28;1195;-62
2022/09/28 00:26:07;;;;;;;1.58;0.80;;;;;;;;;;519901;28;1245;-63
2022/09/28 00:26:22;;;;;;;2.57;0.90;;;;;;;;;;521357;28;1132;-62
2022/09/28 00:26:40;;;;;;;2.75;0.90;;;;;;;;;;521846;28;1161;-62
2022/09/28 00:26:59;;;;;;;2.33;0.90;;;;;;;;;;522299;28;1295;-63
2022/09/28 00:27:15;;;;;;;3.10;0.90;;;;;;;;;;523097;28;1010;-62
2022/09/28 00:27:30;;;;;;;2.77;0.80;;;;;;;;;;524403;28;1110;-62
2022/09/28 00:27:49;;;;;;;2.60;0.90;;;;;;;;;;521773;28;1069;-62
2022/09/28 00:28:05;;;;;;;2.80;1.00;;;;;;;;;;522159;28;1161;-62
2022/09/28 00:28:20;;;;;;;2.43;0.90;;;;;;;;;;520088;28;1181;-62
2022/09/28 00:28:35;;;;;;;3.40;0.90;;;;;;;;;;522390;28;1142;-62
2022/09/28 00:28:52;;;;;;;2.60;0.80;;;;;;;;;;520965;28;1205;-62
2022/09/28 00:29:15;;;;;;;1.40;0.70;;;;;;;;;;521912;28;1133;-62
2022/09/28 00:29:33;;;;;;;2.30;0.88;;;;;;;;;;521446;28;1225;-62
2022/09/28 00:29:48;;;;;;;2.83;1.00;;;;;;;;;;520092;28;1128;-62
2022/09/28 00:30:04;;;;;;;1.83;0.90;;;;;;;;;;519596;28;2203;-63
2022/09/28 00:30:19;;;;;;;2.20;0.80;;;;;;;;;;520583;28;4033;-62
2022/09/28 00:30:34;;;;;;;2.08;0.80;;;;;;;;;;521617;28;1018;-62
2022/09/28 00:30:54;;;;;;;1.50;0.70;;;;;;;;;;520920;28;1279;-62
2022/09/28 00:31:09;;;;;;;2.30;0.88;;;;;;;;;;518380;28;1247;-62
2022/09/28 00:31:27;;;;;;;2.80;0.90;;;;;;;;;;518996;28;1126;-62
2022/09/28 00:31:43;;;;;;;2.53;0.90;;;;;;;;;;517641;28;1462;-62
2022/09/28 00:32:02;;;;;;;1.87;0.90;;;;;;;;;;518053;28;1024;-62
2022/09/28 00:32:17;;;;;;;1.77;0.80;;;;;;;;;;517747;28;1303;-62
2022/09/28 00:32:33;;;;;;;2.70;0.70;;;;;;;;;;519649;28;1234;-62
2022/09/28 00:32:48;;;;;;;4.03;0.90;;;;;;;;;;515770;28;1194;-62
2022/09/28 00:33:03;;;;;;;3.70;1.10;;;;;;;;;;515826;28;1151;-62
2022/09/28 00:33:18;;;;;;;2.30;0.90;;;;;;;;;;516030;28;1198;-62
2022/09/28 00:33:34;;;;;;;2.07;0.93;;;;;;;;;;518806;28;1224;-62
2022/09/28 00:33:50;;;;;;;2.63;1.00;;;;;;;;;;518529;28;1487;-62
2022/09/28 00:34:05;;;;;;;3.00;0.90;;;;;;;;;;517825;28;1185;-62
2022/09/28 00:34:21;;;;;;;3.13;0.90;;;;;;;;;;518022;28;1039;-62
2022/09/28 00:34:41;;;;;;;2.45;0.90;;;;;;;;;;518549;28;1169;-62
2022/09/28 00:34:56;;;;;;;2.38;0.95;;;;;;;;;;518366;28;1228;-62
2022/09/28 00:35:11;;;;;;;2.40;1.07;;;;;;;;;;520893;28;1138;-62
2022/09/28 00:35:26;;;;;;;2.67;1.10;;;;;;;;;;521948;28;1188;-62
2022/09/28 00:35:42;;;;;;;2.73;0.90;;;;;;;;;;522995;28;1035;-62
2022/09/28 00:35:57;;;;;;;2.33;0.80;;;;;;;;;;525656;28;1184;-62
2022/09/28 00:36:13;;;;;;;2.17;0.90;;;;;;;;;;522470;28;1298;-62
2022/09/28 00:36:30;;;;;;;2.28;0.90;;;;;;;;;;524896;28;1266;-62
2022/09/28 00:36:46;;;;;;;2.30;0.90;;;;;;;;;;522667;28;1140;-63
2022/09/28 00:37:02;;;;;;;3.20;1.00;;;;;;;;;;522343;28;1222;-62
2022/09/28 00:37:18;;;;;;;3.50;1.10;;;;;;;;;;522570;28;1125;-62
2022/09/28 00:37:34;;;;;;;2.67;0.93;;;;;;;;;;523986;28;1105;-62
2022/09/28 00:37:49;;;;;;;3.38;1.00;;;;;;;;;;522473;28;1261;-62
2022/09/28 00:38:08;;;;;;;3.30;1.00;;;;;;;;;;522147;28;1212;-62
2022/09/28 00:38:27;;;;;;;2.58;0.70;;;;;;;;;;521643;28;1113;-62
2022/09/28 00:38:43;;;;;;;3.72;0.82;;;;;;;;;;521116;28;1030;-62
2022/09/28 00:39:04;;;;;;;4.07;0.90;;;;;;;;;;523490;28;1239;-62
2022/09/28 00:39:20;;;;;;;3.00;0.90;;;;;;;;;;523862;28;1243;-62
2022/09/28 00:39:37;;;;;;;2.08;0.88;;;;;;;;;;520620;28;1177;-63
2022/09/28 00:39:52;;;;;;;2.60;0.82;;;;;;;;;;526544;27;1140;-62
2022/09/28 00:40:08;;;;;;;3.27;0.90;;;;;;;;;;523139;28;1314;-62
2022/09/28 00:40:23;;;;;;;2.28;0.80;;;;;;;;;;523168;28;1202;-62
2022/09/28 00:40:38;;;;;;;2.83;0.80;;;;;;;;;;520641;28;1237;-62
2022/09/28 00:40:54;;;;;;;2.97;0.80;;;;;;;;;;521642;28;1298;-63
2022/09/28 00:41:10;;;;;;;3.50;0.85;;;;;;;;;;522257;28;1420;-62
2022/09/28 00:41:27;;;;;;;3.70;0.90;;;;;;;;;;522673;28;1224;-63
2022/09/28 00:41:43;;;;;;;3.13;0.80;;;;;;;;;;521503;28;1317;-62
2022/09/28 00:41:59;;;;;;;2.22;0.80;;;;;;;;;;518842;28;1327;-62
2022/09/28 00:42:20;;;;;;;2.75;0.73;;;;;;;;;;521075;28;1151;-62
2022/09/28 00:42:35;;;;;;;3.20;0.80;;;;;;;;;;520529;28;1251;-62
2022/09/28 00:42:50;;;;;;;2.20;0.77;;;;;;;;;;519389;28;1106;-62
2022/09/28 00:43:17;;;;;;;3.47;0.90;;;;;;;;;;518555;28;1212;-62
2022/09/28 00:43:32;;;;;;;2.40;0.80;;;;;;;;;;517273;28;1294;-62
2022/09/28 00:43:48;;;;;;;2.30;0.80;;;;;;;;;;517400;28;1008;-63
2022/09/28 00:44:21;;;;;;;1.83;0.80;;;;;;;;;;518135;28;1733;-62
2022/09/28 00:44:38;;;;;;;1.63;0.70;;;;;;;;;;520609;28;948;-62
2022/09/28 00:44:57;;;;;;;2.65;0.80;;;;;;;;;;521782;28;1205;-62
2022/09/28 00:45:13;;;;;;;3.42;0.75;;;;;;;;;;518165;28;4105;-62
2022/09/28 00:45:28;;;;;;;2.93;0.80;;;;;;;;;;519450;28;1229;-62
2022/09/28 00:45:43;;;;;;;2.50;0.90;;;;;;;;;;521584;28;1913;-62
2022/09/28 00:46:02;;;;;;;2.53;0.90;;;;;;;;;;520534;28;1364;-62
2022/09/28 00:46:32;;;;;;;1.67;0.70;;;;;;;;;;516856;28;1373;-64
2022/09/28 00:46:50;;;;;;;2.20;0.85;;;;;;;;;;521185;28;1195;-62
2022/09/28 00:47:30;;;;;;;2.10;0.80;;;;;;;;;;521482;28;1169;-62
2022/09/28 00:47:54;;;;;;;2.20;0.80;;;;;;;;;;522638;28;1136;-63
2022/09/28 00:48:10;;;;;;;2.25;0.77;;;;;;;;;;525477;27;1133;-62
2022/09/28 00:48:30;;;;;;;1.95;0.70;;;;;;;;;;525572;28;1032;-62
2022/09/28 00:48:57;;;;;;;1.45;0.70;;;;;;;;;;526665;27;1113;-62
2022/09/28 00:49:16;;;;;;;2.30;0.80;;;;;;;;;;524409;28;1010;-62
2022/09/28 00:49:44;;;;;;;2.08;0.80;;;;;;;;;;523622;28;1441;-63
2022/09/28 00:50:18;;;;;;;1.73;0.80;;;;;;;;;;523665;28;1069;-62
2022/09/28 00:50:36;;;;;;;2.97;0.85;;;;;;;;;;523581;28;1102;-62
2022/09/28 00:50:51;;;;;;;2.40;0.80;;;;;;;;;;523893;28;1134;-62
2022/09/28 00:51:11;;;;;;;2.20;0.80;;;;;;;;;;522473;28;1176;-62
2022/09/28 00:51:26;;;;;;;2.35;0.70;;;;;;;;;;524169;28;1220;-62
2022/09/28 00:51:44;;;;;;;2.17;0.70;;;;;;;;;;521636;28;1222;-62
2022/09/28 00:52:01;;;;;;;1.92;0.82;;;;;;;;;;522263;28;1194;-62
2022/09/28 00:52:26;;;;;;;1.55;0.80;;;;;;;;;;519479;28;1295;-62
2022/09/28 00:52:52;;;;;;;2.05;0.90;;;;;;;;;;521156;28;1184;-62
2022/09/28 00:53:07;;;;;;;2.38;0.90;;;;;;;;;;517328;28;1374;-62
2022/09/28 00:53:29;;;;;;;2.00;0.80;;;;;;;;;;517571;28;1474;-62
2022/09/28 00:53:44;;;;;;;1.88;0.88;;;;;;;;;;517442;28;1322;-62
2022/09/28 00:54:02;;;;;;;2.13;0.80;;;;;;;;;;518774;28;1008;-62
2022/09/28 00:54:17;;;;;;;2.50;0.80;;;;;;;;;;518997;28;1061;-62
2022/09/28 00:54:33;;;;;;;1.90;0.80;;;;;;;;;;517082;28;1337;-62
2022/09/28 00:54:50;;;;;;;2.20;0.80;;;;;;;;;;518330;28;1480;-62
2022/09/28 00:55:10;;;;;;;2.42;0.80;;;;;;;;;;517621;28;1409;-62
2022/09/28 00:55:35;;;;;;;1.90;0.80;;;;;;;;;;520595;28;1197;-62
2022/09/28 00:55:51;;;;;;;1.75;0.70;;;;;;;;;;521748;28;1018;-62
2022/09/28 00:56:11;;;;;;;2.42;0.80;;;;;;;;;;518652;28;1369;-62
2022/09/28 00:56:29;;;;;;;2.80;0.80;;;;;;;;;;518488;28;1237;-62
2022/09/28 00:56:47;;;;;;;1.98;0.80;;;;;;;;;;519158;28;1143;-62
2022/09/28 00:57:03;;;;;;;2.05;0.80;;;;;;;;;;516950;28;1172;-62
2022/09/28 00:57:21;;;;;;;2.55;0.85;;;;;;;;;;520494;28;1278;-62
2022/09/28 00:57:39;;;;;;;2.08;0.70;;;;;;;;;;522676;28;1187;-63
2022/09/28 00:57:58;;;;;;;2.40;0.73;;;;;;;;;;523556;28;1452;-62
2022/09/28 00:58:18;;;;;;;2.28;0.80;;;;;;;;;;521746;28;1321;-62
2022/09/28 00:58:40;;;;;;;3.30;0.93;;;;;;;;;;523315;28;1414;-62
2022/09/28 00:58:58;;;;;;;4.30;0.90;;;;;;;;;;522707;28;1117;-62
2022/09/28 00:59:14;;;;;;;3.20;0.90;;;;;;;;;;523206;28;1130;-62
2022/09/28 00:59:32;;;;;;;2.50;0.90;;;;;;;;;;523173;28;1125;-62
2022/09/28 00:59:48;;;;;;;2.47;0.80;;;;;;;;;;522084;28;1241;-62
2022/09/28 01:00:05;;;;;;;2.65;0.70;;;;;;;;;;522516;27;1188;-62
2022/09/28 01:00:20;;;;;;;4.10;0.70;;;;;;;;;;524077;28;5005;-62
2022/09/28 01:00:39;;;;;;;5.50;0.90;;;;;;;;;;522480;28;1264;-62
2022/09/28 01:00:57;;;;;;;3.33;0.90;;;;;;;;;;524843;28;1997;-62
2022/09/28 01:01:12;;;;;;;2.65;0.90;;;;;;;;;;520374;28;1245;-62
2022/09/28 01:01:28;;;;;;;3.25;0.90;;;;;;;;;;519338;28;1294;-62
2022/09/28 01:01:43;;;;;;;2.40;0.90;;;;;;;;;;519472;28;1170;-62
2022/09/28 01:02:00;;;;;;;1.77;0.80;;;;;;;;;;519419;28;1358;-62
2022/09/28 01:02:15;;;;;;;2.05;0.70;;;;;;;;;;516204;28;1268;-62
2022/09/28 01:02:30;;;;;;;2.40;0.90;;;;;;;;;;517522;28;1161;-62
2022/09/28 01:02:46;;;;;;;2.53;0.83;;;;;;;;;;518866;28;1209;-62
2022/09/28 01:03:02;;;;;;;1.63;0.70;;;;;;;;;;519650;28;1165;-62
2022/09/28 01:03:18;;;;;;;1.33;0.77;;;;;;;;;;520218;28;1238;-62
2022/09/28 01:03:33;;;;;;;1.80;0.80;;;;;;;;;;523177;28;1018;-62
2022/09/28 01:03:49;;;;;;;2.20;0.80;;;;;;;;;;522454;28;1187;-62
2022/09/28 01:04:05;;;;;;;2.17;0.80;;;;;;;;;;521992;28;1062;-62
2022/09/28 01:04:21;;;;;;;2.03;0.88;;;;;;;;;;520976;28;1339;-62
2022/09/28 01:04:37;;;;;;;3.10;0.88;;;;;;;;;;520297;28;1050;-62
2022/09/28 01:04:53;;;;;;;3.17;0.80;;;;;;;;;;520684;28;1138;-62
2022/09/28 01:05:09;;;;;;;1.63;0.75;;;;;;;;;;521027;28;1156;-62
2022/09/28 01:05:26;;;;;;;2.05;0.70;;;;;;;;;;524421;28;1165;-62
2022/09/28 01:05:42;;;;;;;2.67;0.75;;;;;;;;;;524246;28;2026;-62
2022/09/28 01:06:01;;;;;;;1.83;0.70;;;;;;;;;;525508;28;1010;-62
2022/09/28 01:06:26;;;;;;;1.48;0.77;;;;;;;;;;525626;27;1152;-62
2022/09/28 01:06:44;;;;;;;1.58;0.82;;;;;;;;;;524187;28;1223;-62
2022/09/28 01:06:59;;;;;;;1.30;0.70;;;;;;;;;;525791;27;1404;-62
2022/09/28 01:07:17;;;;;;;2.50;0.90;;;;;;;;;;521852;28;1037;-62
2022/09/28 01:07:33;;;;;;;3.08;0.90;;;;;;;;;;521914;28;1034;-62
2022/09/28 01:07:49;;;;;;;1.90;0.80;;;;;;;;;;521117;28;1090;-63
2022/09/28 01:08:06;;;;;;;1.52;0.73;;;;;;;;;;519404;28;1325;-62
2022/09/28 01:08:26;;;;;;;2.33;0.80;;;;;;;;;;519595;28;1150;-62
2022/09/28 01:08:43;;;;;;;1.80;0.80;;;;;;;;;;520558;28;1006;-62
2022/09/28 01:09:04;;;;;;;1.38;0.73;;;;;;;;;;519270;28;1169;-62
2022/09/28 01:09:20;;;;;;;2.05;0.77;;;;;;;;;;521411;28;1137;-62
2022/09/28 01:09:38;;;;;;;2.40;0.90;;;;;;;;;;523251;28;1026;-62
2022/09/28 01:09:53;;;;;;;2.15;0.80;;;;;;;;;;522766;28;1165;-62
2022/09/28 01:10:09;;;;;;;2.47;0.90;;;;;;;;;;520792;28;1297;-62
2022/09/28 01:10:27;;;;;;;2.10;0.90;;;;;;;;;;522021;28;1192;-62
2022/09/28 01:10:42;;;;;;;1.63;0.80;;;;;;;;;;521778;28;1180;-62
2022/09/28 01:10:58;;;;;;;1.63;0.80;;;;;;;;;;522723;28;1239;-62
2022/09/28 01:11:14;;;;;;;2.22;0.80;;;;;;;;;;522031;28;1038;-62
2022/09/28 01:11:34;;;;;;;2.60;0.70;;;;;;;;;;522440;28;1062;-62
2022/09/28 01:11:50;;;;;;;2.05;0.85;;;;;;;;;;518428;28;1250;-62
2022/09/28 01:12:06;;;;;;;1.57;0.80;;;;;;;;;;521087;28;1202;-63
2022/09/28 01:12:21;;;;;;;1.58;0.70;;;;;;;;;;522605;28;1225;-62
2022/09/28 01:12:36;;;;;;;1.60;0.70;;;;;;;;;;523919;28;1302;-62
2022/09/28 01:12:54;;;;;;;1.30;0.70;;;;;;;;;;521106;28;1246;-62
2022/09/28 01:13:11;;;;;;;1.70;0.70;;;;;;;;;;518981;28;1250;-62
2022/09/28 01:13:30;;;;;;;2.30;0.73;;;;;;;;;;518718;28;1241;-62
2022/09/28 01:13:49;;;;;;;2.08;0.70;;;;;;;;;;519674;28;1120;-63
2022/09/28 01:14:08;;;;;;;1.92;0.68;;;;;;;;;;516984;28;1334;-62
2022/09/28 01:14:24;;;;;;;1.65;0.70;;;;;;;;;;518166;28;1308;-62
2022/09/28 01:14:40;;;;;;;1.25;0.70;;;;;;;;;;520822;28;1145;-62
2022/09/28 01:14:57;;;;;;;1.77;0.60;;;;;;;;;;518818;28;1313;-62
2022/09/28 01:15:20;;;;;;;2.32;0.70;;;;;;;;;;349174;28;10001168;-62
2022/09/28 01:16:20;;;;;;;1.86;0.80;;;;;;;;;;31231;28;10002432;-62
2022/09/28 01:16:54;;;;;;;1.41;0.60;;;;;;;;;;172338;28;10002549;-62
2022/09/28 01:17:19;;;;;;;2.28;0.70;;;;;;;;;;523560;28;1090;-62
2022/09/28 01:18:06;;;;;;;1.48;0.70;;;;;;;;;;522830;28;1276;-62
2022/09/28 01:18:26;;;;;;;2.38;0.90;;;;;;;;;;524717;28;1058;-63
2022/09/28 01:18:50;;;;;;;2.75;0.80;;;;;;;;;;524692;28;1391;-62
2022/09/28 01:19:33;;;;;;;1.95;0.80;;;;;;;;;;519967;28;1322;-62
2022/09/28 01:20:14;;;;;;;3.70;0.80;;;;;;;;;;522618;28;1188;-62
2022/09/28 01:20:55;;;;;;;2.58;0.90;;;;;;;;;;524256;28;1142;-62
2022/09/28 01:21:22;;;;;;;2.28;0.85;;;;;;;;;;522764;28;1398;-61
2022/09/28 01:21:54;;;;;;;1.70;0.80;;;;;;;;;;520150;28;1418;-62
2022/09/28 01:22:21;;;;;;;2.72;0.80;;;;;;;;;;522079;28;1224;-62
2022/09/28 01:22:43;;;;;;;1.65;0.77;;;;;;;;;;520395;28;1242;-62
2022/09/28 01:23:11;;;;;;;2.17;0.80;;;;;;;;;;521259;28;1185;-63
2022/09/28 01:23:42;;;;;;;1.83;0.80;;;;;;;;;;524384;28;1117;-62
2022/09/28 01:24:13;;;;;;;3.58;0.90;;;;;;;;;;524055;28;1282;-63
2022/09/28 01:25:10;;;;;;;2.35;0.80;;;;;;;;;;525373;28;1117;-62
2022/09/28 01:25:49;;;;;;;2.20;0.68;;;;;;;;;;525554;28;1077;-62
2022/09/28 01:26:35;;;;;;;1.42;0.80;;;;;;;;;;524982;27;959;-62
2022/09/28 01:26:55;;;;;;;1.10;0.80;;;;;;;;;;526149;27;1103;-62
2022/09/28 01:27:33;;;;;;;2.72;0.80;;;;;;;;;;524588;28;998;-62
2022/09/28 01:27:56;;;;;;;2.10;0.73;;;;;;;;;;524219;28;1045;-62
2022/09/28 01:28:15;;;;;;;2.60;0.82;;;;;;;;;;522128;28;1108;-62
2022/09/28 01:28:31;;;;;;;2.88;0.80;;;;;;;;;;521943;28;1231;-62
2022/09/28 01:28:52;;;;;;;1.85;0.75;;;;;;;;;;522876;28;1184;-62
2022/09/28 01:29:17;;;;;;;2.80;0.88;;;;;;;;;;519705;28;1479;-62
2022/09/28 01:29:50;;;;;;;2.75;0.90;;;;;;;;;;521516;28;1013;-62
2022/09/28 01:30:09;;;;;;;1.73;0.80;;;;;;;;;;518408;28;1209;-63
2022/09/28 01:30:24;;;;;;;2.20;0.80;;;;;;;;;;521013;28;4020;-62
2022/09/28 01:30:45;;;;;;;1.80;0.70;;;;;;;;;;522975;28;1221;-62
2022/09/28 01:31:12;;;;;;;2.60;0.80;;;;;;;;;;522967;28;1027;-62
2022/09/28 01:31:30;;;;;;;3.80;0.93;;;;;;;;;;522046;28;1041;-62
2022/09/28 01:31:52;;;;;;;3.60;0.90;;;;;;;;;;522491;28;1451;-62
2022/09/28 01:32:33;;;;;;;1.98;0.80;;;;;;;;;;523208;28;1035;-62
2022/09/28 01:33:03;;;;;;;2.28;0.80;;;;;;;;;;523477;28;1032;-62
2022/09/28 01:33:26;;;;;;;2.60;0.80;;;;;;;;;;523887;28;1049;-63
2022/09/28 01:33:54;;;;;;;2.63;0.80;;;;;;;;;;524134;27;1288;-62
2022/09/28 01:34:15;;;;;;;2.30;0.90;;;;;;;;;;527152;27;1155;-63
2022/09/28 01:34:37;;;;;;;1.42;0.80;;;;;;;;;;526198;27;1622;-62
2022/09/28 01:35:03;;;;;;;2.50;0.90;;;;;;;;;;527088;27;1132;-62
2022/09/28 01:35:25;;;;;;;2.03;0.85;;;;;;;;;;526071;27;1182;-62
2022/09/28 01:35:52;;;;;;;2.35;0.75;;;;;;;;;;526736;27;1138;-62
2022/09/28 01:36:16;;;;;;;1.23;0.60;;;;;;;;;;525725;27;1164;-62
2022/09/28 01:36:41;;;;;;;2.42;0.80;;;;;;;;;;524659;28;1266;-62
2022/09/28 01:37:03;;;;;;;1.90;0.63;;;;;;;;;;523159;28;1013;-63
2022/09/28 01:37:20;;;;;;;2.78;0.80;;;;;;;;;;522791;28;1224;-62
2022/09/28 01:37:57;;;;;;;2.67;0.80;;;;;;;;;;523602;28;1125;-62
2022/09/28 01:38:28;;;;;;;2.58;0.80;;;;;;;;;;523717;28;1118;-62
2022/09/28 01:38:51;;;;;;;1.45;0.70;;;;;;;;;;525074;28;1116;-62
2022/09/28 01:39:12;;;;;;;2.67;0.73;;;;;;;;;;520008;28;1432;-62
2022/09/28 01:39:35;;;;;;;2.17;0.80;;;;;;;;;;520844;28;1130;-62
2022/09/28 01:39:54;;;;;;;2.30;0.80;;;;;;;;;;522819;28;1248;-62
2022/09/28 01:40:12;;;;;;;1.90;0.73;;;;;;;;;;522697;28;1124;-63
2022/09/28 01:40:29;;;;;;;1.42;0.65;;;;;;;;;;523160;28;1133;-62
2022/09/28 01:40:45;;;;;;;2.30;0.70;;;;;;;;;;521341;28;1173;-62
2022/09/28 01:41:02;;;;;;;2.50;0.70;;;;;;;;;;524786;28;1030;-63
2022/09/28 01:41:20;;;;;;;1.70;0.75;;;;;;;;;;525136;27;1083;-62
2022/09/28 01:41:39;;;;;;;2.13;0.85;;;;;;;;;;524164;27;1428;-62
2022/09/28 01:41:58;;;;;;;1.50;0.70;;;;;;;;;;525303;27;1048;-62
2022/09/28 01:42:23;;;;;;;1.40;0.80;;;;;;;;;;524104;28;1366;-62
2022/09/28 01:42:40;;;;;;;1.45;0.70;;;;;;;;;;521924;28;1304;-62
2022/09/28 01:43:05;;;;;;;1.52;0.77;;;;;;;;;;523635;28;1156;-62
2022/09/28 01:43:24;;;;;;;1.52;0.77;;;;;;;;;;522863;28;1038;-62
2022/09/28 01:43:45;;;;;;;1.58;0.80;;;;;;;;;;522425;28;1339;-62
2022/09/28 01:44:03;;;;;;;1.23;0.70;;;;;;;;;;523806;28;1069;-62
2022/09/28 01:44:21;;;;;;;1.77;0.70;;;;;;;;;;520594;28;1188;-62
2022/09/28 01:44:42;;;;;;;2.40;0.80;;;;;;;;;;524740;28;1101;-62
2022/09/28 01:45:08;;;;;;;2.20;0.77;;;;;;;;;;525381;27;1717;-62
2022/09/28 01:45:29;;;;;;;1.60;0.70;;;;;;;;;;525372;28;3970;-62
2022/09/28 01:45:53;;;;;;;2.33;0.70;;;;;;;;;;525059;27;1980;-62
2022/09/28 01:46:31;;;;;;;2.80;0.70;;;;;;;;;;523306;27;1079;-63
2022/09/28 01:46:49;;;;;;;2.38;0.80;;;;;;;;;;523394;28;1021;-62
2022/09/28 01:47:09;;;;;;;2.25;0.82;;;;;;;;;;525781;28;1017;-62
2022/09/28 01:47:30;;;;;;;1.45;0.80;;;;;;;;;;525091;27;1252;-62
2022/09/28 01:47:46;;;;;;;1.80;0.80;;;;;;;;;;526607;27;1178;-62
2022/09/28 01:48:05;;;;;;;2.38;0.80;;;;;;;;;;525398;27;1133;-62
2022/09/28 01:48:27;;;;;;;1.60;0.70;;;;;;;;;;524030;28;1271;-62
2022/09/28 01:48:52;;;;;;;2.85;0.70;;;;;;;;;;524847;28;1124;-62
2022/09/28 01:49:14;;;;;;;3.58;0.82;;;;;;;;;;523119;28;1125;-62
2022/09/28 01:49:37;;;;;;;2.30;0.80;;;;;;;;;;520560;28;1349;-62
2022/09/28 01:50:01;;;;;;;2.13;0.73;;;;;;;;;;522208;28;1073;-62
2022/09/28 01:50:21;;;;;;;2.53;0.63;;;;;;;;;;522668;28;1201;-62
2022/09/28 01:50:40;;;;;;;2.80;0.80;;;;;;;;;;523329;28;1133;-62
2022/09/28 01:50:59;;;;;;;2.47;0.80;;;;;;;;;;522456;28;1409;-62
2022/09/28 01:51:40;;;;;;;2.53;0.77;;;;;;;;;;524955;28;1465;-62
2022/09/28 01:52:13;;;;;;;1.77;0.80;;;;;;;;;;523816;28;2139;-63
2022/09/28 01:52:54;;;;;;;2.17;0.88;;;;;;;;;;522254;28;1498;-62
2022/09/28 01:53:11;;;;;;;2.35;0.73;;;;;;;;;;523954;28;1114;-62
2022/09/28 01:53:38;;;;;;;2.47;0.82;;;;;;;;;;524109;28;1152;-62
2022/09/28 01:53:59;;;;;;;2.38;0.80;;;;;;;;;;526877;27;1227;-63
2022/09/28 01:54:39;;;;;;;2.05;0.88;;;;;;;;;;526379;27;1113;-62
2022/09/28 01:55:16;;;;;;;2.28;0.70;;;;;;;;;;524897;27;1175;-62
2022/09/28 01:55:40;;;;;;;1.52;0.70;;;;;;;;;;525081;27;1164;-62
2022/09/28 01:56:06;;;;;;;1.38;0.70;;;;;;;;;;523897;28;1239;-62
2022/09/28 01:56:27;;;;;;;2.08;0.75;;;;;;;;;;523640;28;1126;-62
2022/09/28 01:56:57;;;;;;;2.22;0.70;;;;;;;;;;522663;28;1594;-62
2022/09/28 01:57:24;;;;;;;1.70;0.70;;;;;;;;;;522782;28;1067;-62
2022/09/28 01:57:46;;;;;;;3.05;0.90;;;;;;;;;;523206;28;1185;-62
2022/09/28 01:58:16;;;;;;;1.92;0.70;;;;;;;;;;522274;28;1157;-62
2022/09/28 01:58:49;;;;;;;2.22;0.77;;;;;;;;;;524077;28;1117;-62
2022/09/28 01:59:13;;;;;;;2.80;0.85;;;;;;;;;;525177;27;1215;-62
2022/09/28 01:59:31;;;;;;;2.80;0.70;;;;;;;;;;527114;27;1204;-62
2022/09/28 02:00:00;;;;;;;1.67;0.68;;;;;;;;;;525982;27;1011;-62
2022/09/28 02:00:17;;;;;;;1.15;0.80;;;;;;;;;;522005;27;4118;-63
2022/09/28 02:00:37;;;;;;;1.50;0.70;;;;;;;;;;526608;27;1141;-62
2022/09/28 02:00:58;;;;;;;1.58;0.80;;;;;;;;;;527043;27;1132;-62
2022/09/28 02:01:20;;;;;;;1.60;0.80;;;;;;;;;;524301;28;998;-62
2022/09/28 02:01:40;;;;;;;1.77;0.73;;;;;;;;;;523891;28;1066;-62
2022/09/28 02:01:58;;;;;;;1.45;0.65;;;;;;;;;;524254;28;1319;-62